Time;durP1;ratioP1;P1;durP2;ratioP2;P2;SDS_P1;SDS_P2;PMS_P1;PMS_P2;Temp;Humidity;BMP_temperature;BMP_pressure;BME280_temperature;BME280_humidity;BME280_pressure;Samples;Min_cycle;Max_cycle;Signal;HPM_P1;HPM_P2
2023/12/14 00:01:55;;;;;;;2.87;2.37;;;12.40;90.40;;;;;;5156897;27;20437;-67
2023/12/14 00:04:22;;;;;;;2.23;2.03;;;12.50;90.40;;;;;;5156710;27;20972;-65
2023/12/14 00:06:49;;;;;;;4.40;2.60;;;12.50;90.30;;;;;;5156314;27;20475;-65
2023/12/14 00:09:16;;;;;;;2.60;2.40;;;12.40;90.40;;;;;;5154885;27;20431;-65
2023/12/14 00:11:43;;;;;;;3.63;3.00;;;12.40;90.40;;;;;;5142816;27;20483;-65
2023/12/14 00:14:13;;;;;;;3.37;2.80;;;12.40;90.40;;;;;;5156615;27;20462;-65
2023/12/14 00:16:40;;;;;;;4.60;2.77;;;12.40;90.90;;;;;;5147683;27;20437;-65
2023/12/14 00:19:08;;;;;;;3.40;2.83;;;12.30;90.60;;;;;;5136428;27;20475;-65
2023/12/14 00:21:35;;;;;;;3.50;3.20;;;12.30;90.60;;;;;;5148337;27;20472;-65
2023/12/14 00:24:02;;;;;;;4.47;3.20;;;12.30;90.70;;;;;;5156144;27;20444;-65
2023/12/14 00:26:29;;;;;;;3.70;3.40;;;12.20;90.80;;;;;;5152449;27;20475;-66
2023/12/14 00:28:55;;;;;;;3.80;3.43;;;12.30;90.80;;;;;;5146893;27;20464;-65
2023/12/14 00:31:23;;;;;;;4.57;3.33;;;12.20;90.70;;;;;;5152637;27;20487;-65
2023/12/14 00:33:49;;;;;;;5.37;3.77;;;12.30;90.80;;;;;;5137342;27;20936;-65
2023/12/14 00:36:21;;;;;;;6.00;4.43;;;12.30;90.80;;;;;;5135932;27;20465;-66
2023/12/14 00:38:47;;;;;;;5.50;4.10;;;12.30;90.80;;;;;;5097546;27;20512;-65
2023/12/14 00:41:14;;;;;;;5.00;4.43;;;12.30;90.80;;;;;;5157436;27;20444;-65
2023/12/14 00:43:41;;;;;;;4.73;4.33;;;12.20;90.80;;;;;;5159906;27;20955;-65
2023/12/14 00:46:09;;;;;;;4.60;4.10;;;12.20;90.80;;;;;;5118196;27;20535;-65
2023/12/14 00:48:37;;;;;;;6.63;4.73;;;12.20;90.80;;;;;;5154736;27;20440;-64
2023/12/14 00:51:06;;;;;;;6.93;5.10;;;12.20;90.80;;;;;;5155834;27;20475;-66
2023/12/14 00:53:34;;;;;;;6.37;4.80;;;12.20;90.80;;;;;;5151030;27;20435;-65
2023/12/14 00:56:01;;;;;;;4.73;4.23;;;12.20;90.80;;;;;;5137454;27;20437;-65
2023/12/14 00:58:28;;;;;;;5.90;4.80;;;12.20;90.80;;;;;;5102026;27;20897;-65
2023/12/14 01:00:55;;;;;;;5.57;5.03;;;12.20;90.90;;;;;;5134863;27;20439;-65
2023/12/14 01:06:47;;;;;;;5.63;5.03;;;12.20;91.00;;;;;;5153134;27;20423;-65
2023/12/14 01:09:15;;;;;;;8.93;5.57;;;12.10;91.00;;;;;;5152969;27;20452;-65
2023/12/14 01:11:41;;;;;;;6.63;5.47;;;12.10;91.30;;;;;;5139723;27;20484;-66
2023/12/14 01:14:08;;;;;;;7.33;6.33;;;12.10;91.00;;;;;;5134605;27;20440;-66
2023/12/14 01:16:35;;;;;;;8.43;6.07;;;12.10;91.10;;;;;;5134002;27;20453;-66
2023/12/14 01:19:02;;;;;;;7.93;6.03;;;12.10;91.30;;;;;;5136625;27;20564;-66
2023/12/14 01:21:29;;;;;;;7.07;6.23;;;12.10;91.20;;;;;;5152359;27;20450;-65
2023/12/14 01:23:55;;;;;;;9.10;6.70;;;12.10;91.30;;;;;;5134481;27;20461;-65
2023/12/14 01:26:23;;;;;;;9.17;6.27;;;12.10;91.30;;;;;;5134434;27;20444;-65
2023/12/14 01:28:50;;;;;;;8.37;6.10;;;12.00;91.40;;;;;;5135337;27;20782;-65
2023/12/14 01:31:17;;;;;;;7.33;6.47;;;12.10;91.40;;;;;;5144692;27;20493;-66
2023/12/14 01:33:45;;;;;;;8.00;5.90;;;12.10;91.40;;;;;;5140286;27;20437;-65
2023/12/14 01:36:12;;;;;;;7.97;6.90;;;12.20;91.30;;;;;;5133832;27;20453;-64
2023/12/14 01:38:39;;;;;;;10.13;6.07;;;12.20;91.30;;;;;;5148476;27;20439;-65
2023/12/14 01:41:06;;;;;;;8.73;6.13;;;12.10;91.40;;;;;;5141356;27;20800;-65
2023/12/14 01:43:34;;;;;;;7.50;6.27;;;12.10;91.40;;;;;;5154363;27;20455;-66
2023/12/14 01:46:01;;;;;;;9.77;6.30;;;12.10;91.40;;;;;;5136554;27;20435;-65
2023/12/14 01:48:28;;;;;;;8.37;7.30;;;12.10;91.40;;;;;;5137226;27;20452;-65
2023/12/14 01:50:55;;;;;;;9.33;6.90;;;12.10;91.80;;;;;;5147198;27;20445;-64
2023/12/14 01:53:22;;;;;;;7.77;6.73;;;12.10;91.50;;;;;;5135123;27;20527;-66
2023/12/14 01:55:49;;;;;;;10.17;8.97;;;12.00;91.60;;;;;;5144288;27;20436;-66
2023/12/14 01:58:16;;;;;;;7.53;6.73;;;12.00;91.70;;;;;;5153387;27;20436;-64
2023/12/14 02:00:50;;;;;;;9.30;7.73;;;12.00;91.80;;;;;;5136108;27;20456;-65
2023/12/14 02:03:17;;;;;;;7.67;6.20;;;11.90;91.80;;;;;;5133775;27;20424;-65
2023/12/14 02:05:44;;;;;;;7.50;6.50;;;12.00;91.80;;;;;;5133243;27;20994;-65
2023/12/14 02:08:11;;;;;;;8.07;6.20;;;12.00;91.90;;;;;;5145230;27;20759;-65
2023/12/14 02:10:38;;;;;;;6.73;6.03;;;12.00;91.80;;;;;;5149529;27;20440;-65
2023/12/14 02:13:05;;;;;;;9.67;6.90;;;12.10;91.80;;;;;;5133600;27;20491;-65
2023/12/14 02:15:31;;;;;;;7.30;6.47;;;12.10;91.80;;;;;;5143488;27;20458;-65
2023/12/14 02:18:00;;;;;;;7.97;6.30;;;12.10;91.80;;;;;;5154098;27;20439;-65
2023/12/14 02:20:26;;;;;;;7.43;5.87;;;12.10;91.70;;;;;;5149850;27;20451;-65
2023/12/14 02:22:55;;;;;;;7.33;6.00;;;12.10;91.70;;;;;;5146265;27;20456;-64
2023/12/14 02:25:23;;;;;;;7.70;5.77;;;12.20;91.80;;;;;;5154051;27;20444;-64
2023/12/14 02:27:51;;;;;;;6.90;6.13;;;12.20;91.70;;;;;;5135917;27;20456;-66
2023/12/14 02:30:18;;;;;;;7.03;5.90;;;12.30;91.70;;;;;;5134580;27;20765;-65
2023/12/14 02:32:45;;;;;;;6.83;5.83;;;12.30;91.60;;;;;;5139270;27;20479;-65
2023/12/14 02:35:12;;;;;;;8.27;6.40;;;12.30;91.50;;;;;;5148764;27;20445;-64
2023/12/14 02:37:40;;;;;;;8.77;6.17;;;12.40;91.50;;;;;;5133245;27;20910;-64
2023/12/14 02:40:09;;;;;;;7.40;6.13;;;12.30;91.40;;;;;;5134513;27;20441;-64
2023/12/14 02:42:36;;;;;;;8.33;6.40;;;12.20;91.60;;;;;;5153875;27;20436;-64
2023/12/14 02:45:04;;;;;;;8.30;5.97;;;12.10;91.90;;;;;;5148166;27;20462;-65
2023/12/14 02:47:31;;;;;;;10.73;7.43;;;12.10;92.00;;;;;;5152226;27;20448;-64
2023/12/14 02:49:58;;;;;;;7.70;6.17;;;12.20;92.00;;;;;;5134315;27;20828;-64
2023/12/14 02:52:25;;;;;;;8.60;7.10;;;12.20;91.90;;;;;;5134154;27;20476;-64
2023/12/14 02:54:52;;;;;;;8.13;7.07;;;12.30;91.90;;;;;;5134080;27;20476;-65
2023/12/14 02:57:20;;;;;;;8.23;6.70;;;12.20;91.70;;;;;;5137829;27;20442;-64
2023/12/14 02:59:46;;;;;;;8.80;7.00;;;12.20;91.80;;;;;;5138959;27;20441;-65
2023/12/14 03:02:13;;;;;;;15.07;11.97;;;12.20;91.90;;;;;;5132722;27;20437;-66
2023/12/14 03:04:40;;;;;;;14.53;9.77;;;12.20;92.00;;;;;;5147003;27;20448;-65
2023/12/14 03:07:07;;;;;;;12.63;9.67;;;12.10;92.00;;;;;;5153606;27;20538;-67
2023/12/14 03:09:34;;;;;;;8.87;7.70;;;12.20;92.00;;;;;;5133412;27;20453;-66
2023/12/14 03:12:01;;;;;;;9.47;8.17;;;12.10;92.00;;;;;;5132841;27;20484;-67
2023/12/14 03:14:34;;;;;;;12.33;9.83;;;12.20;92.00;;;;;;5133136;27;20441;-65
2023/12/14 03:17:01;;;;;;;11.67;8.40;;;12.20;92.00;;;;;;5133912;27;20457;-65
2023/12/14 03:19:27;;;;;;;9.20;8.07;;;12.20;92.00;;;;;;5134740;27;20456;-66
2023/12/14 03:21:54;;;;;;;8.07;7.27;;;12.20;92.00;;;;;;5148838;27;20457;-67
2023/12/14 03:24:21;;;;;;;9.13;7.53;;;12.10;92.00;;;;;;5144435;27;20786;-66
2023/12/14 03:26:48;;;;;;;8.83;7.33;;;12.10;92.20;;;;;;5153488;27;20450;-67
2023/12/14 03:29:15;;;;;;;8.80;7.90;;;12.20;92.10;;;;;;5156044;27;20450;-66
2023/12/14 03:31:43;;;;;;;9.03;7.90;;;12.20;92.00;;;;;;5153481;27;20482;-65
2023/12/14 03:34:10;;;;;;;9.13;7.77;;;12.20;92.00;;;;;;5147441;27;20478;-65
2023/12/14 03:36:36;;;;;;;9.40;7.33;;;12.20;92.50;;;;;;5157100;27;20513;-65
2023/12/14 03:39:03;;;;;;;8.23;7.10;;;12.20;92.00;;;;;;5157027;27;20468;-66
2023/12/14 03:41:30;;;;;;;8.70;7.80;;;12.30;92.10;;;;;;5157274;27;20555;-66
2023/12/14 03:43:57;;;;;;;12.67;9.77;;;12.30;92.10;;;;;;5148976;27;20467;-65
2023/12/14 03:46:23;;;;;;;15.40;13.80;;;12.30;92.10;;;;;;5141615;27;20432;-65
2023/12/14 03:48:52;;;;;;;15.37;11.90;;;12.20;92.00;;;;;;5145768;27;20440;-65
2023/12/14 03:51:19;;;;;;;12.67;10.53;;;12.20;92.00;;;;;;5136733;27;20436;-65
2023/12/14 03:53:46;;;;;;;11.03;9.17;;;12.20;92.00;;;;;;5104333;27;20487;-65
2023/12/14 03:56:13;;;;;;;10.33;8.70;;;12.20;92.20;;;;;;5150157;27;20514;-66
2023/12/14 03:58:43;;;;;;;9.83;8.63;;;12.20;92.30;;;;;;5157251;27;20442;-65
2023/12/14 04:01:17;;;;;;;9.33;8.20;;;12.10;92.40;;;;;;5150373;27;20469;-65
2023/12/14 04:03:44;;;;;;;11.40;8.20;;;12.20;92.40;;;;;;5154494;27;20437;-65
2023/12/14 04:06:12;;;;;;;11.10;8.63;;;12.20;92.60;;;;;;5146715;27;20475;-66
2023/12/14 04:08:40;;;;;;;10.07;8.07;;;12.30;92.20;;;;;;5143994;27;20434;-67
2023/12/14 04:11:06;;;;;;;9.47;8.07;;;12.30;92.10;;;;;;5156440;27;20458;-66
2023/12/14 04:13:33;;;;;;;10.00;7.93;;;12.40;92.10;;;;;;5153556;27;20471;-66
2023/12/14 04:16:00;;;;;;;12.80;8.23;;;12.50;92.00;;;;;;5136884;27;20448;-66
2023/12/14 04:18:28;;;;;;;9.93;8.63;;;12.50;91.90;;;;;;5136134;27;20454;-65
2023/12/14 04:20:54;;;;;;;9.17;7.90;;;12.50;91.90;;;;;;5144714;27;20452;-66
2023/12/14 04:23:22;;;;;;;13.30;8.77;;;12.50;91.90;;;;;;5151216;27;20463;-65
2023/12/14 04:25:49;;;;;;;11.50;8.67;;;12.50;91.80;;;;;;5155343;27;20447;-66
2023/12/14 04:28:16;;;;;;;10.37;8.53;;;12.50;91.90;;;;;;5144809;27;20549;-66
2023/12/14 04:30:43;;;;;;;10.17;8.03;;;12.60;91.90;;;;;;5139061;27;20796;-67
2023/12/14 04:33:10;;;;;;;10.57;8.77;;;12.60;91.80;;;;;;5156151;27;20487;-66
2023/12/14 04:35:37;;;;;;;12.17;9.23;;;12.60;91.70;;;;;;5136400;27;20451;-67
2023/12/14 04:38:03;;;;;;;11.23;9.37;;;12.70;91.70;;;;;;5135561;27;20440;-67
2023/12/14 04:40:32;;;;;;;12.43;9.00;;;12.70;91.70;;;;;;5135169;27;20452;-66
2023/12/14 04:42:59;;;;;;;10.53;9.07;;;12.60;91.60;;;;;;5135172;27;20527;-66
2023/12/14 04:45:26;;;;;;;10.50;9.13;;;12.70;91.60;;;;;;5151775;27;20476;-67
2023/12/14 04:47:53;;;;;;;10.93;9.00;;;12.70;91.60;;;;;;5151342;27;20463;-67
2023/12/14 04:50:20;;;;;;;9.97;8.80;;;12.70;91.60;;;;;;5156040;27;20467;-64
2023/12/14 04:52:47;;;;;;;10.43;9.17;;;12.70;91.50;;;;;;5154055;27;20480;-67
2023/12/14 04:55:14;;;;;;;9.57;8.57;;;12.70;91.50;;;;;;5142873;27;20441;-67
2023/12/14 04:57:43;;;;;;;9.80;8.80;;;12.80;91.50;;;;;;5149513;27;20861;-66
2023/12/14 05:00:10;;;;;;;10.17;9.10;;;12.80;91.50;;;;;;5149194;27;20471;-66
2023/12/14 05:02:37;;;;;;;11.37;9.30;;;12.80;91.50;;;;;;5155124;27;20456;-67
2023/12/14 05:05:05;;;;;;;13.20;9.77;;;12.80;91.40;;;;;;5137784;27;20846;-66
2023/12/14 05:07:31;;;;;;;12.73;10.27;;;12.80;91.50;;;;;;5143628;27;20472;-67
2023/12/14 05:09:58;;;;;;;13.37;10.10;;;12.90;91.50;;;;;;5149833;27;20452;-67
2023/12/14 05:12:26;;;;;;;10.23;9.13;;;12.80;91.40;;;;;;5146471;27;20511;-66
2023/12/14 05:14:55;;;;;;;11.77;10.00;;;12.90;91.50;;;;;;5145970;27;20455;-65
2023/12/14 05:17:21;;;;;;;12.17;9.60;;;12.80;91.40;;;;;;5155305;27;20458;-66
2023/12/14 05:19:48;;;;;;;12.33;9.60;;;12.80;91.40;;;;;;5139006;27;20445;-67
2023/12/14 05:22:15;;;;;;;12.57;11.10;;;12.90;91.50;;;;;;5136622;27;20445;-65
2023/12/14 05:24:42;;;;;;;13.63;10.83;;;12.90;91.40;;;;;;5140619;27;20535;-66
2023/12/14 05:27:08;;;;;;;12.80;10.93;;;12.90;91.40;;;;;;5145408;27;20803;-66
2023/12/14 05:29:35;;;;;;;12.97;10.20;;;12.80;91.40;;;;;;5154802;27;20464;-65
2023/12/14 05:32:04;;;;;;;13.93;10.50;;;12.90;91.50;;;;;;5154782;27;20444;-65
2023/12/14 05:34:31;;;;;;;9.97;8.97;;;12.90;91.50;;;;;;5143733;27;20464;-66
2023/12/14 05:36:57;;;;;;;10.17;9.07;;;12.90;91.40;;;;;;5134327;27;20456;-66
2023/12/14 05:39:24;;;;;;;13.53;10.97;;;12.90;91.40;;;;;;5134371;27;20451;-66
2023/12/14 05:41:51;;;;;;;15.70;12.80;;;12.90;91.40;;;;;;5134382;27;20429;-67
2023/12/14 05:44:18;;;;;;;16.23;14.33;;;12.90;91.40;;;;;;5146515;27;20920;-67
2023/12/14 05:46:44;;;;;;;13.47;10.83;;;12.80;91.40;;;;;;5145134;27;20466;-67
2023/12/14 05:49:13;;;;;;;12.03;10.30;;;12.80;91.40;;;;;;5154153;27;20450;-67
2023/12/14 05:51:39;;;;;;;12.97;10.37;;;12.80;91.50;;;;;;5153727;27;20467;-66
2023/12/14 05:54:06;;;;;;;11.63;10.07;;;12.80;91.50;;;;;;5153651;27;21024;-66
2023/12/14 05:56:33;;;;;;;15.30;10.50;;;12.80;91.50;;;;;;5152237;27;20436;-66
2023/12/14 05:59:00;;;;;;;11.77;9.73;;;12.80;91.50;;;;;;5141570;27;20487;-66
2023/12/14 06:01:27;;;;;;;13.43;10.20;;;12.80;91.50;;;;;;5138659;27;20925;-66
2023/12/14 06:03:54;;;;;;;12.13;10.80;;;12.80;91.50;;;;;;5150310;27;20462;-67
2023/12/14 06:06:22;;;;;;;16.77;13.10;;;12.80;91.50;;;;;;5144502;27;20458;-67
2023/12/14 06:08:49;;;;;;;18.77;13.17;;;12.80;91.60;;;;;;5134465;27;20441;-66
2023/12/14 06:11:16;;;;;;;16.63;14.40;;;12.70;91.70;;;;;;5133410;27;20464;-67
2023/12/14 06:13:43;;;;;;;22.30;17.20;;;12.60;91.80;;;;;;5133098;27;20559;-67
2023/12/14 06:16:12;;;;;;;16.60;13.47;;;12.50;92.20;;;;;;5145420;27;20911;-66
2023/12/14 06:18:41;;;;;;;16.77;14.13;;;12.40;92.10;;;;;;5147247;27;20486;-65
2023/12/14 06:21:08;;;;;;;14.83;12.40;;;12.40;92.10;;;;;;5136054;27;20449;-64
2023/12/14 06:23:37;;;;;;;15.00;11.97;;;12.40;92.10;;;;;;5151540;27;20459;-65
2023/12/14 06:26:04;;;;;;;13.83;11.67;;;12.30;92.20;;;;;;5153046;27;20436;-64
2023/12/14 06:28:31;;;;;;;14.53;12.43;;;12.30;92.30;;;;;;5137078;27;20457;-66
2023/12/14 06:30:58;;;;;;;15.37;11.80;;;12.40;92.30;;;;;;5147015;27;20463;-65
2023/12/14 06:33:25;;;;;;;15.03;11.77;;;12.40;92.30;;;;;;5136613;27;20483;-65
2023/12/14 06:35:51;;;;;;;15.33;11.87;;;12.50;92.20;;;;;;5132499;27;20956;-65
2023/12/14 06:38:18;;;;;;;16.20;11.10;;;12.50;92.20;;;;;;5133010;27;20432;-65
2023/12/14 06:40:47;;;;;;;16.87;11.90;;;12.60;92.10;;;;;;5132718;27;20437;-64
2023/12/14 06:43:13;;;;;;;15.27;11.73;;;12.60;92.00;;;;;;5147526;27;20547;-65
2023/12/14 06:45:40;;;;;;;13.33;10.83;;;12.60;91.90;;;;;;5151853;27;20523;-65
2023/12/14 06:48:07;;;;;;;15.17;11.53;;;12.60;91.80;;;;;;5153368;27;20444;-65
2023/12/14 06:50:34;;;;;;;14.67;11.40;;;12.70;91.80;;;;;;5152238;27;20451;-65
2023/12/14 06:53:01;;;;;;;16.33;11.57;;;12.70;91.80;;;;;;5141016;27;20487;-65
2023/12/14 06:55:30;;;;;;;13.13;10.80;;;12.70;91.80;;;;;;5133299;27;20469;-65
2023/12/14 06:57:59;;;;;;;13.73;11.90;;;12.70;91.70;;;;;;5133766;27;20520;-66
2023/12/14 07:00:25;;;;;;;14.47;11.90;;;12.70;91.70;;;;;;5145660;27;20440;-66
2023/12/14 07:02:52;;;;;;;18.70;12.60;;;12.70;92.10;;;;;;5150776;27;21152;-65
2023/12/14 07:05:19;;;;;;;13.53;10.80;;;12.70;91.70;;;;;;5149056;27;20439;-67
2023/12/14 07:07:46;;;;;;;15.10;11.20;;;12.80;91.70;;;;;;5149484;27;20493;-66
2023/12/14 07:10:13;;;;;;;11.97;10.53;;;12.80;91.60;;;;;;5141223;27;20947;-66
2023/12/14 07:12:39;;;;;;;14.67;11.47;;;12.80;91.70;;;;;;5153097;27;20475;-66
2023/12/14 07:15:09;;;;;;;14.83;11.53;;;12.80;91.70;;;;;;5151301;27;21227;-66
2023/12/14 07:17:35;;;;;;;14.93;11.77;;;12.80;91.70;;;;;;5150694;27;20518;-67
2023/12/14 07:20:02;;;;;;;13.47;11.17;;;12.80;91.60;;;;;;5146339;27;20528;-67
2023/12/14 07:22:29;;;;;;;16.23;12.30;;;12.80;91.60;;;;;;5136115;27;20472;-67
2023/12/14 07:24:56;;;;;;;15.60;11.80;;;12.80;91.60;;;;;;5144507;27;20448;-68
2023/12/14 07:27:23;;;;;;;17.43;12.07;;;12.80;91.60;;;;;;5153134;27;20446;-67
2023/12/14 07:29:50;;;;;;;13.50;11.47;;;12.70;91.90;;;;;;5140761;27;21158;-66
2023/12/14 07:32:18;;;;;;;15.23;12.50;;;12.80;91.60;;;;;;5150405;27;20467;-66
2023/12/14 07:34:45;;;;;;;13.77;11.80;;;12.80;91.50;;;;;;5142792;27;20475;-67
2023/12/14 07:37:12;;;;;;;14.57;11.80;;;12.80;91.60;;;;;;5152846;27;20459;-66
2023/12/14 07:39:39;;;;;;;13.30;10.90;;;12.80;91.60;;;;;;5138727;27;20472;-67
2023/12/14 07:42:06;;;;;;;14.20;11.03;;;12.80;91.60;;;;;;5151198;27;20806;-67
2023/12/14 07:44:35;;;;;;;13.13;10.53;;;12.80;91.70;;;;;;5132099;28;20440;-66
2023/12/14 07:47:02;;;;;;;12.17;10.87;;;12.70;91.70;;;;;;5132245;28;20480;-65
2023/12/14 07:49:30;;;;;;;13.93;10.97;;;12.70;91.70;;;;;;5141584;27;20555;-66
2023/12/14 07:51:57;;;;;;;13.40;11.10;;;12.70;91.70;;;;;;5149691;27;20802;-66
2023/12/14 07:54:26;;;;;;;12.30;9.83;;;12.70;91.70;;;;;;5147664;27;20468;-67
2023/12/14 07:56:53;;;;;;;11.67;9.73;;;12.70;91.80;;;;;;5141051;27;20484;-67
2023/12/14 07:59:20;;;;;;;12.10;9.83;;;12.70;91.80;;;;;;5131871;27;20459;-66
2023/12/14 08:01:47;;;;;;;9.83;8.77;;;12.70;91.90;;;;;;5141065;27;20485;-67
2023/12/14 08:04:14;;;;;;;11.97;10.70;;;12.70;91.80;;;;;;5143564;27;20829;-67
2023/12/14 08:06:42;;;;;;;12.10;10.50;;;12.70;91.90;;;;;;5133235;27;20460;-67
2023/12/14 08:09:10;;;;;;;11.93;10.10;;;12.70;92.00;;;;;;5132588;27;20436;-68
2023/12/14 08:11:36;;;;;;;10.83;9.20;;;12.70;91.90;;;;;;5133038;27;20893;-68
2023/12/14 08:14:03;;;;;;;10.73;9.47;;;12.70;91.90;;;;;;5132439;27;20484;-67
2023/12/14 08:16:30;;;;;;;11.30;9.37;;;12.80;92.00;;;;;;5143673;27;20431;-67
2023/12/14 08:18:57;;;;;;;12.90;9.73;;;12.80;92.00;;;;;;5156173;27;20454;-67
2023/12/14 08:21:25;;;;;;;12.93;10.80;;;12.80;91.90;;;;;;5135370;27;20571;-68
2023/12/14 08:23:53;;;;;;;11.17;8.73;;;12.90;92.00;;;;;;5134416;27;20437;-67
2023/12/14 08:26:20;;;;;;;10.70;8.73;;;12.90;91.90;;;;;;5137104;27;20543;-66
2023/12/14 08:28:47;;;;;;;10.37;8.80;;;12.90;91.90;;;;;;5148771;27;20818;-68
2023/12/14 08:31:14;;;;;;;11.80;9.40;;;12.90;91.90;;;;;;5153310;27;20475;-66
2023/12/14 08:33:42;;;;;;;10.53;9.07;;;12.80;91.90;;;;;;5155191;27;20515;-67
2023/12/14 08:36:09;;;;;;;10.27;9.03;;;12.80;92.00;;;;;;5155309;27;20544;-67
2023/12/14 08:38:36;;;;;;;12.07;8.83;;;12.80;92.10;;;;;;5155302;27;20456;-67
2023/12/14 08:41:05;;;;;;;10.57;8.83;;;12.80;92.00;;;;;;5142747;27;20535;-67
2023/12/14 08:43:32;;;;;;;10.50;7.87;;;12.80;92.00;;;;;;5138078;27;20439;-66
2023/12/14 08:45:59;;;;;;;9.37;8.10;;;12.80;92.10;;;;;;5155290;27;20464;-66
2023/12/14 08:48:25;;;;;;;11.13;9.10;;;12.80;92.10;;;;;;5155408;27;20804;-69
2023/12/14 08:50:54;;;;;;;13.90;9.50;;;12.80;92.10;;;;;;5155001;27;20484;-67
2023/12/14 08:53:21;;;;;;;12.13;9.33;;;12.80;92.10;;;;;;5141503;27;20869;-66
2023/12/14 08:55:48;;;;;;;9.80;8.50;;;12.80;92.10;;;;;;5134393;27;20452;-66
2023/12/14 08:58:16;;;;;;;11.30;9.47;;;12.90;92.40;;;;;;5134389;27;20532;-67
2023/12/14 09:00:43;;;;;;;22.70;16.33;;;12.90;92.10;;;;;;5134204;27;20443;-67
2023/12/14 09:03:10;;;;;;;18.40;15.20;;;13.00;92.00;;;;;;5146144;27;20459;-67
2023/12/14 09:05:41;;;;;;;15.23;11.80;;;13.00;91.90;;;;;;5149879;27;20467;-67
2023/12/14 09:08:08;;;;;;;13.63;11.27;;;12.90;92.00;;;;;;5155370;27;20461;-67
2023/12/14 09:10:35;;;;;;;15.13;11.50;;;12.80;92.00;;;;;;5152194;27;20539;-67
2023/12/14 09:13:04;;;;;;;13.50;12.03;;;12.80;92.20;;;;;;5134829;27;20483;-66
2023/12/14 09:15:32;;;;;;;12.80;10.67;;;12.70;92.30;;;;;;5135232;27;20512;-66
2023/12/14 09:17:59;;;;;;;11.33;9.80;;;12.70;92.30;;;;;;5134996;27;20947;-67
2023/12/14 09:20:26;;;;;;;14.43;10.53;;;12.70;92.30;;;;;;5136533;27;20594;-67
2023/12/14 09:22:53;;;;;;;10.17;8.60;;;12.70;92.30;;;;;;5155486;27;20450;-66
2023/12/14 09:25:20;;;;;;;13.23;11.63;;;12.70;92.30;;;;;;5158475;27;20520;-66
2023/12/14 09:27:47;;;;;;;14.50;12.07;;;12.60;92.50;;;;;;5152665;27;20483;-68
2023/12/14 09:30:17;;;;;;;12.37;9.83;;;12.60;92.60;;;;;;5135341;27;20517;-67
2023/12/14 09:32:45;;;;;;;11.93;9.27;;;12.50;92.70;;;;;;5133953;27;20456;-67
2023/12/14 09:35:12;;;;;;;11.10;8.50;;;12.60;92.80;;;;;;5154035;27;20536;-67
2023/12/14 09:37:41;;;;;;;9.93;8.50;;;12.70;92.70;;;;;;5154522;27;20464;-67
2023/12/14 09:40:09;;;;;;;11.83;8.27;;;12.70;92.60;;;;;;5142531;27;20448;-67
2023/12/14 09:42:39;;;;;;;10.17;8.17;;;12.70;92.50;;;;;;5153783;27;20476;-67
2023/12/14 09:45:09;;;;;;;9.83;7.83;;;12.80;92.50;;;;;;5153906;27;20526;-67
2023/12/14 09:47:36;;;;;;;13.03;8.87;;;12.80;92.30;;;;;;5154387;27;20452;-67
2023/12/14 09:50:06;;;;;;;11.30;8.63;;;12.90;92.40;;;;;;5145919;27;20440;-69
2023/12/14 09:52:33;;;;;;;10.50;8.23;;;12.90;92.40;;;;;;5148487;27;21424;-67
2023/12/14 09:55:03;;;;;;;9.87;8.50;;;13.00;92.40;;;;;;5132971;27;20498;-67
2023/12/14 09:57:30;;;;;;;10.60;7.90;;;13.00;92.20;;;;;;5132965;27;20571;-68
2023/12/14 09:59:57;;;;;;;10.10;7.67;;;13.00;92.10;;;;;;5137187;27;20524;-67
2023/12/14 10:02:27;;;;;;;12.47;8.47;;;13.10;92.00;;;;;;5153619;27;20459;-67
2023/12/14 10:04:54;;;;;;;11.20;8.43;;;13.10;92.00;;;;;;5134551;27;20536;-67
2023/12/14 10:07:23;;;;;;;11.90;8.93;;;13.20;92.00;;;;;;5132555;27;20461;-67
2023/12/14 10:09:50;;;;;;;10.87;8.17;;;13.10;91.70;;;;;;5139150;27;20536;-66
2023/12/14 10:12:17;;;;;;;9.67;7.83;;;13.10;91.80;;;;;;5138207;27;20451;-66
2023/12/14 10:14:44;;;;;;;9.97;8.00;;;13.10;91.90;;;;;;5135009;27;20568;-66
2023/12/14 10:17:17;;;;;;;9.63;8.63;;;13.20;91.90;;;;;;5138580;27;20445;-67
2023/12/14 10:19:44;;;;;;;9.87;8.53;;;13.20;91.70;;;;;;5132059;27;20464;-67
2023/12/14 10:22:12;;;;;;;9.20;8.13;;;13.20;91.70;;;;;;5139435;27;20474;-66
2023/12/14 10:24:41;;;;;;;9.10;7.63;;;13.20;91.80;;;;;;5151066;27;20504;-67
2023/12/14 10:27:08;;;;;;;8.70;7.53;;;13.10;91.90;;;;;;5152644;27;20456;-66
2023/12/14 10:29:35;;;;;;;9.87;8.07;;;13.20;91.90;;;;;;5136130;27;20464;-66
2023/12/14 10:32:06;;;;;;;10.63;7.17;;;13.30;91.70;;;;;;5134251;27;20445;-65
2023/12/14 10:34:33;;;;;;;8.77;7.67;;;13.20;91.80;;;;;;5131528;27;20524;-66
2023/12/14 10:37:01;;;;;;;10.33;7.67;;;13.30;91.90;;;;;;5137655;27;21144;-66
2023/12/14 10:39:30;;;;;;;8.97;7.60;;;13.20;91.80;;;;;;5140828;27;20472;-65
2023/12/14 10:42:02;;;;;;;12.17;8.40;;;13.20;91.90;;;;;;5135355;27;20473;-67
2023/12/14 10:44:36;;;;;;;9.53;7.80;;;13.30;91.90;;;;;;5132056;27;20516;-66
2023/12/14 10:47:05;;;;;;;29.33;16.70;;;13.40;91.90;;;;;;5139627;27;20583;-66
2023/12/14 10:49:34;;;;;;;26.33;16.93;;;13.50;91.90;;;;;;5136021;27;20441;-67
2023/12/14 10:52:03;;;;;;;22.90;17.20;;;13.50;91.60;;;;;;5132381;27;20440;-66
2023/12/14 10:54:33;;;;;;;15.37;13.73;;;13.50;91.70;;;;;;5131880;27;20492;-66
2023/12/14 10:57:03;;;;;;;14.73;11.70;;;13.50;91.70;;;;;;5132907;27;20445;-67
2023/12/14 10:59:32;;;;;;;17.80;15.03;;;13.60;91.70;;;;;;5148513;27;20508;-65
2023/12/14 11:01:59;;;;;;;16.20;12.63;;;13.60;91.70;;;;;;5136682;27;20516;-67
2023/12/14 11:04:27;;;;;;;10.37;9.37;;;13.60;91.70;;;;;;5132118;27;20428;-67
2023/12/14 11:06:55;;;;;;;10.73;7.87;;;13.60;91.50;;;;;;5132048;28;20590;-67
2023/12/14 11:09:24;;;;;;;8.87;7.97;;;13.50;91.70;;;;;;5132463;28;20453;-67
2023/12/14 11:11:59;;;;;;;9.97;7.70;;;13.50;91.70;;;;;;5132744;27;20488;-66
2023/12/14 11:14:29;;;;;;;10.87;8.60;;;13.40;91.40;;;;;;5147172;27;20996;-68
2023/12/14 11:16:57;;;;;;;8.70;7.80;;;13.30;91.70;;;;;;5152501;27;20530;-67
2023/12/14 11:19:28;;;;;;;10.60;7.43;;;13.30;91.90;;;;;;5152933;27;20459;-66
2023/12/14 11:22:14;;;;;;;9.70;6.77;;;13.50;92.00;;;;;;5148934;27;20441;-66
2023/12/14 11:24:44;;;;;;;9.23;7.90;;;13.60;92.00;;;;;;5152309;27;20424;-66
2023/12/14 11:27:13;;;;;;;8.53;7.63;;;13.60;91.90;;;;;;5152370;27;20939;-66
2023/12/14 11:29:41;;;;;;;9.17;8.07;;;13.70;91.70;;;;;;5152570;27;20448;-69
2023/12/14 11:32:09;;;;;;;8.57;6.70;;;13.60;91.60;;;;;;5149909;27;20451;-66
2023/12/14 11:34:35;;;;;;;7.47;6.53;;;13.60;91.70;;;;;;5141790;27;20499;-68
2023/12/14 11:37:02;;;;;;;8.97;6.63;;;13.70;91.70;;;;;;5152387;27;20466;-68
2023/12/14 11:39:31;;;;;;;8.73;7.10;;;13.70;91.70;;;;;;5152212;27;21130;-66
2023/12/14 11:42:02;;;;;;;9.37;7.70;;;13.80;91.70;;;;;;5152026;27;20458;-67
2023/12/14 11:44:30;;;;;;;9.40;8.03;;;13.80;91.60;;;;;;5145972;27;20437;-66
2023/12/14 11:46:58;;;;;;;12.70;7.93;;;13.90;91.60;;;;;;5145839;27;20463;-67
2023/12/14 11:49:26;;;;;;;7.77;6.53;;;13.90;91.50;;;;;;5133647;27;20448;-67
2023/12/14 11:51:54;;;;;;;7.97;6.97;;;13.90;91.40;;;;;;5148269;27;20443;-66
2023/12/14 11:54:21;;;;;;;26.77;14.00;;;14.00;91.50;;;;;;5156443;27;20489;-67
2023/12/14 11:56:48;;;;;;;9.97;7.87;;;14.00;91.50;;;;;;5147024;27;20884;-66
2023/12/14 11:59:20;;;;;;;9.90;7.00;;;14.00;91.40;;;;;;5136223;27;20468;-67
2023/12/14 12:02:07;;;;;;;10.80;7.43;;;14.00;91.40;;;;;;5140108;27;20451;-67
2023/12/14 12:04:34;;;;;;;9.97;7.13;;;14.00;91.50;;;;;;5155308;27;20436;-66
2023/12/14 12:07:03;;;;;;;8.60;7.70;;;14.00;91.40;;;;;;5155909;27;20821;-66
2023/12/14 12:09:35;;;;;;;7.77;6.50;;;14.00;91.30;;;;;;5147201;27;20950;-67
2023/12/14 12:12:06;;;;;;;9.37;6.90;;;14.00;91.40;;;;;;5155453;27;20993;-68
2023/12/14 12:14:33;;;;;;;10.57;7.40;;;14.00;91.40;;;;;;5155188;27;20553;-67
2023/12/14 12:16:59;;;;;;;10.50;7.33;;;14.00;91.40;;;;;;5155762;27;20442;-67
2023/12/14 12:19:28;;;;;;;10.10;7.13;;;14.00;91.30;;;;;;5155657;27;20550;-67
2023/12/14 12:21:55;;;;;;;9.37;6.87;;;14.00;91.30;;;;;;5146898;27;20484;-67
2023/12/14 12:24:22;;;;;;;9.20;7.20;;;13.90;91.20;;;;;;5155330;27;20514;-66
2023/12/14 12:26:49;;;;;;;10.30;7.47;;;13.80;91.40;;;;;;5154656;27;20459;-66
2023/12/14 12:29:16;;;;;;;9.40;6.93;;;13.80;91.30;;;;;;5135744;27;20443;-66
2023/12/14 12:31:44;;;;;;;7.57;6.47;;;13.90;91.40;;;;;;5139046;27;20459;-67
2023/12/14 12:34:12;;;;;;;6.93;6.23;;;13.90;91.40;;;;;;5148997;27;20440;-66
2023/12/14 12:36:40;;;;;;;14.43;7.60;;;13.90;91.30;;;;;;5141244;27;20468;-67
2023/12/14 12:39:08;;;;;;;10.03;7.00;;;13.80;91.20;;;;;;5134249;27;20464;-68
2023/12/14 12:41:36;;;;;;;8.80;6.27;;;13.80;91.30;;;;;;5145851;27;20525;-68
2023/12/14 12:44:06;;;;;;;8.43;6.60;;;13.80;91.40;;;;;;5135053;27;20466;-66